Airfield :
LOGIN :

Register | Disclaimer

   EN    FR    IT 

 










Legend :    VFR   Marginal VFR   IFR   Intensive IFR   Very Intensive IFR
Visi :
Ceiling :
>= 8 km
>= 3000ft
5 to 8 km
1000 to 3000 ft
1500m to 5 km
500 to 1000 ft
800 to 1500m
200 to 500 ft
< 800m
< 200 ft
Symbols :   Thunderstorms  Fog  Heavy snow  Heavy precipitations  Wind > 20 kt
SIGMETs :     Misc.  Thunderstorms  Icing  Turbulence  Mountain Waves  Volcanic Ashes






- Airport Elevation : 11 ft
- IATA code : PVK


LGPZ - Aktion Lefkada Preveza

CURRENT METAR :
  • 150420Z 00000KT 9999 FEW018 19/18 Q1018

EXPIRED METARs :
  • 150350Z 00000KT 9999 SCT020 18/18 Q1018
  • 150320Z 00000KT 9999 SCT018 18/18 Q1018
  • 150250Z 00000KT 9999 SCT018 18/18 Q1018
  • 150150Z 00000KT 9999 FEW018 17/17 Q1018

TAF TAF LGPZ
Valid from the 15 at 00:00 until the 16 at 00:00 UTC


142300Z 1500/1524 07005KT 9999 FEW020
PROB30 1500/1506 5000 BR SCT006
BECMG 1510/1512 27010KT



MET'MAP, your aeronautical weather chart ! - Copyright ORBIFLY December 2007 - Disclaimer

ORBIFLY MET'MAP TEAM :

Programming & Development : Alexandra Zaïnal
Concept & Development : Baudouin d'Aumeries
Co-Development & Prog : Marc-Olivier Méhu
Technical & hardware support : Manuel Goepfert

Contact : metmap@orbifly.com




SOURCES & CREDITS :

   NOAA